Terminal Aerodrome Forecast
Issued by NWS

Home | Current Version | Previous Version | Graphics & Text | Print | Product List | Glossary On
Versions: 1 2 3 4 5 6 7 8 9 10 11 12 13 14 15 16 17
853
FTUS42 KMHX 172331
TAFOAJ
TAF
KOAJ 172331Z 1800/1824 17005KT P6SM OVC250
     FM180400 VRB03KT P6SM VCTS OVC050CB
      AMD LTD TO CLD VIS AND WIND=

USA.gov is the U.S. government's official web portal to all federal, state and local government web resources and services.